Time;durP1;ratioP1;P1;durP2;ratioP2;P2;SDS_P1;SDS_P2;PMS_P1;PMS_P2;Temp;Humidity;BMP_temperature;BMP_pressure;BME280_temperature;BME280_humidity;BME280_pressure;Samples;Min_cycle;Max_cycle;Signal;HPM_P1;HPM_P2
2021/03/08 00:00:15;;;;;;;10.70;8.27;;;;;;;1.39;60.79;151725.34;5011820;28;20435;-90
2021/03/08 00:02:52;;;;;;;12.17;7.87;;;;;;;1.38;60.38;151722.75;4976546;28;20479;-89
2021/03/08 00:05:27;;;;;;;9.93;8.17;;;;;;;1.39;60.28;151724.03;4994329;28;20453;-89
2021/03/08 00:08:03;;;;;;;12.07;8.60;;;;;;;1.39;60.23;151724.03;4996370;28;20481;-89
2021/03/08 00:10:39;;;;;;;10.80;8.37;;;;;;;1.41;59.51;151729.16;4995814;28;20445;-89
2021/03/08 00:13:15;;;;;;;12.40;8.50;;;;;;;1.43;59.86;151734.34;4996339;28;20446;-89
2021/03/08 00:15:50;;;;;;;9.80;7.80;;;;;;;1.44;59.35;151736.88;4966425;28;20922;-89
2021/03/08 00:18:26;;;;;;;10.63;8.43;;;;;;;1.47;59.80;151744.59;4995636;28;20434;-89
2021/03/08 00:21:01;;;;;;;11.90;8.67;;;;;;;1.45;59.14;151740.78;4980613;28;20910;-88
2021/03/08 00:23:37;;;;;;;8.13;7.33;;;;;;;1.43;59.48;151735.59;4980744;28;20928;-89
2021/03/08 00:26:12;;;;;;;9.47;7.43;;;;;;;1.43;59.33;151734.34;4996430;28;20458;-89
2021/03/08 00:28:48;;;;;;;12.40;8.80;;;;;;;1.39;59.69;151725.34;4995025;28;20867;-89
2021/03/08 00:31:23;;;;;;;12.70;8.93;;;;;;;1.38;59.78;151721.50;4970042;28;20443;-89
2021/03/08 00:33:59;;;;;;;13.27;9.03;;;;;;;1.34;60.16;151712.50;4975782;28;20439;-89
2021/03/08 00:36:34;;;;;;;10.10;8.23;;;;;;;1.28;59.64;151697.06;4979082;28;20430;-89
2021/03/08 00:39:09;;;;;;;12.97;9.10;;;;;;;1.22;60.19;151682.94;5005347;28;20961;-90
2021/03/08 00:41:44;;;;;;;9.93;8.00;;;;;;;1.18;60.54;151672.69;4999370;28;20450;-90
2021/03/08 00:44:21;;;;;;;12.77;9.37;;;;;;;1.26;60.26;151690.66;4981733;28;20438;-90
2021/03/08 00:46:56;;;;;;;11.67;8.90;;;;;;;1.22;60.21;151682.94;4995982;28;20449;-90
2021/03/08 00:49:31;;;;;;;14.10;9.93;;;;;;;1.29;59.66;151698.38;4995942;28;20450;-90
2021/03/08 00:52:06;;;;;;;13.40;9.90;;;;;;;1.30;60.00;151702.19;4991474;28;20459;-89
2021/03/08 00:54:42;;;;;;;11.60;8.27;;;;;;;1.28;60.25;151697.06;4995112;28;20445;-89
2021/03/08 00:57:18;;;;;;;11.40;8.67;;;;;;;1.22;60.57;151681.63;4995253;28;20455;-89
2021/03/08 00:59:58;;;;;;;11.20;8.30;;;;;;;1.22;60.05;151682.94;4979923;28;20430;-88
2021/03/08 01:02:33;;;;;;;9.27;8.27;;;;;;;1.26;60.48;151690.66;4976536;28;20455;-88
2021/03/08 01:05:10;;;;;;;12.03;9.40;;;;;;;1.20;60.11;151677.81;4979810;28;20417;-88
2021/03/08 01:07:46;;;;;;;11.87;8.90;;;;;;;1.21;60.00;151680.41;4975138;28;20452;-88
2021/03/08 01:10:27;;;;;;;11.30;8.20;;;;;;;1.18;60.19;151672.69;4976783;28;20447;-88
2021/03/08 01:13:03;;;;;;;10.57;8.07;;;;;;;1.20;60.10;151676.50;4994792;28;20854;-88
2021/03/08 01:15:39;;;;;;;11.07;8.73;;;;;;;1.26;60.30;151690.66;4991238;28;20471;-87
2021/03/08 01:18:15;;;;;;;13.50;8.60;;;;;;;1.17;60.96;151670.09;4981431;28;20921;-87
2021/03/08 01:20:50;;;;;;;11.23;8.87;;;;;;;1.16;60.35;151667.56;4994196;28;20481;-87
2021/03/08 01:23:25;;;;;;;13.20;9.10;;;;;;;1.09;61.07;151649.53;4994691;28;20440;-87
2021/03/08 01:26:00;;;;;;;12.43;9.50;;;;;;;1.11;61.50;151654.66;4994106;28;20449;-87
2021/03/08 01:28:36;;;;;;;11.67;8.83;;;;;;;1.04;61.26;151636.69;4975312;28;20473;-87
2021/03/08 01:31:12;;;;;;;12.70;9.07;;;;;;;0.99;61.99;151622.56;4982609;28;20472;-87
2021/03/08 01:33:51;;;;;;;11.60;9.13;;;;;;;1.05;61.53;151639.28;4994270;28;20444;-86
2021/03/08 01:36:26;;;;;;;10.40;9.00;;;;;;;0.97;61.98;151617.44;4994107;28;20446;-87
2021/03/08 01:39:01;;;;;;;14.33;9.33;;;;;;;0.97;61.65;151618.72;4995278;28;20418;-86
2021/03/08 01:41:37;;;;;;;13.80;9.17;;;;;;;0.94;62.40;151611.03;5002087;28;20932;-87
2021/03/08 01:44:12;;;;;;;13.30;9.13;;;;;;;0.92;62.13;151605.91;4994004;28;20429;-87
2021/03/08 01:46:49;;;;;;;11.37;9.07;;;;;;;0.81;63.06;151577.63;4993937;28;20826;-87
2021/03/08 01:49:24;;;;;;;11.87;9.60;;;;;;;0.79;63.01;151571.22;4993926;28;20473;-87
2021/03/08 01:52:00;;;;;;;13.10;10.07;;;;;;;0.80;63.90;151573.75;4994149;28;20556;-86
2021/03/08 01:54:35;;;;;;;10.73;8.27;;;;;;;0.78;63.54;151569.91;4993746;28;20849;-87
2021/03/08 01:57:11;;;;;;;10.20;8.30;;;;;;;0.78;64.38;151569.91;4978048;28;20442;-87
2021/03/08 01:59:46;;;;;;;12.00;8.70;;;;;;;0.73;64.02;151557.09;4974517;28;20494;-87
2021/03/08 02:02:23;;;;;;;13.53;9.00;;;;;;;0.70;64.41;151549.38;4987980;28;20534;-87
2021/03/08 02:04:58;;;;;;;11.50;9.50;;;;;;;0.71;65.08;151551.97;4988334;28;20856;-87
2021/03/08 02:07:33;;;;;;;14.53;9.00;;;;;;;0.64;65.35;151533.94;4978714;28;20563;-87
2021/03/08 02:10:10;;;;;;;13.50;9.20;;;;;;;0.63;64.91;151531.41;4994948;28;20438;-86
2021/03/08 02:12:57;;;;;;;11.47;10.23;;;;;;;0.58;65.61;151518.59;4973691;28;20457;-86
2021/03/08 02:15:38;;;;;;;13.07;9.70;;;;;;;0.53;66.92;151507.00;4991002;28;20454;-86
2021/03/08 02:18:19;;;;;;;18.10;9.60;;;;;;;0.48;67.37;151492.88;4993619;28;20949;-87
2021/03/08 02:21:10;;;;;;;17.03;11.80;;;;;;;0.47;68.11;151490.34;4993204;28;20482;-85
2021/03/08 02:24:10;;;;;;;14.87;11.30;;;;;;;0.34;68.98;151456.97;4993170;28;20839;-86
2021/03/08 02:26:48;;;;;;;15.20;11.10;;;;;;;0.26;70.13;151436.41;4979005;28;20859;-86
2021/03/08 02:30:01;;;;;;;17.20;12.17;;;;;;;0.21;70.65;151424.88;4993181;28;20476;-86
2021/03/08 02:32:39;;;;;;;15.17;11.40;;;;;;;0.20;71.50;151422.28;4993418;28;20449;-87
2021/03/08 02:35:18;;;;;;;17.90;13.17;;;;;;;0.15;71.19;151408.19;4978371;28;20488;-88
2021/03/08 02:37:55;;;;;;;14.00;11.17;;;;;;;0.10;72.20;151395.34;4993370;28;20456;-88
2021/03/08 02:40:34;;;;;;;16.83;12.07;;;;;;;0.08;71.73;151390.22;4992838;28;20939;-87
2021/03/08 02:43:16;;;;;;;16.07;11.33;;;;;;;0.03;72.00;151378.63;4993421;28;20499;-87
2021/03/08 02:45:54;;;;;;;15.17;11.83;;;;;;;-0.03;72.65;151364.53;4993151;28;20540;-87
2021/03/08 02:48:32;;;;;;;20.60;12.93;;;;;;;-0.05;73.22;151359.41;4994672;28;20542;-87
2021/03/08 02:51:09;;;;;;;13.83;10.20;;;;;;;-0.17;73.34;151327.34;4992864;28;20977;-88
2021/03/08 02:53:47;;;;;;;15.70;12.37;;;;;;;-0.18;73.68;151326.03;4993073;28;20445;-87
2021/03/08 02:56:25;;;;;;;17.73;11.80;;;;;;;-0.20;73.59;151320.91;4993152;28;20443;-87
2021/03/08 02:59:02;;;;;;;14.93;11.50;;;;;;;-0.23;74.21;151313.22;4993042;28;20479;-87
2021/03/08 03:01:37;;;;;;;18.00;12.17;;;;;;;-0.27;73.88;151302.97;4992747;28;20520;-87
2021/03/08 03:04:15;;;;;;;17.10;12.20;;;;;;;-0.26;73.68;151305.50;4992889;28;20468;-87
2021/03/08 03:06:51;;;;;;;16.77;12.07;;;;;;;-0.34;73.76;151284.97;4992584;28;20442;-87
2021/03/08 03:09:27;;;;;;;15.50;11.37;;;;;;;-0.33;74.70;151287.56;4978469;28;20953;-87
2021/03/08 03:12:03;;;;;;;15.17;10.80;;;;;;;-0.36;74.16;151279.88;4992788;28;20465;-87
2021/03/08 03:14:39;;;;;;;15.37;11.87;;;;;;;-0.40;73.57;151269.63;4978266;28;20771;-87
2021/03/08 03:17:16;;;;;;;15.97;12.03;;;;;;;-0.46;73.92;151254.22;4977221;28;20878;-87
2021/03/08 03:19:53;;;;;;;15.70;12.07;;;;;;;-0.51;73.04;151240.09;4992882;28;20436;-87
2021/03/08 03:22:29;;;;;;;15.07;11.40;;;;;;;-0.59;73.36;151220.88;4983548;28;20500;-87
2021/03/08 03:25:06;;;;;;;15.73;11.63;;;;;;;-0.65;73.58;151206.75;4996965;28;20454;-87
2021/03/08 03:27:42;;;;;;;14.70;10.60;;;;;;;-0.64;74.97;151208.06;5014492;28;20455;-87
2021/03/08 03:30:20;;;;;;;16.00;12.17;;;;;;;-0.62;74.20;151213.19;5003307;28;20432;-87
2021/03/08 03:32:56;;;;;;;15.60;11.83;;;;;;;-0.63;73.98;151210.59;5006196;28;20473;-88
2021/03/08 03:35:32;;;;;;;16.87;13.37;;;;;;;-0.57;75.12;151224.69;5007809;28;20510;-87
2021/03/08 03:38:08;;;;;;;18.80;12.47;;;;;;;-0.59;74.05;151219.59;5010475;28;20442;-87
2021/03/08 03:40:43;;;;;;;18.03;11.47;;;;;;;-0.68;73.57;151197.78;5004142;28;20422;-88
2021/03/08 03:43:19;;;;;;;16.43;12.03;;;;;;;-0.74;73.95;151183.66;4998354;28;20429;-88
2021/03/08 03:45:55;;;;;;;19.57;11.97;;;;;;;-0.77;74.23;151174.72;4996977;28;20464;-88
2021/03/08 03:48:31;;;;;;;17.87;12.30;;;;;;;-0.80;74.14;151168.31;4996017;28;20496;-88
2021/03/08 03:51:08;;;;;;;15.80;11.37;;;;;;;-0.82;74.35;151161.91;4996131;28;20443;-88
2021/03/08 03:53:43;;;;;;;16.30;11.90;;;;;;;-0.81;75.97;151164.44;4995969;28;20443;-88
2021/03/08 03:56:23;;;;;;;17.17;12.17;;;;;;;-0.86;75.12;151151.63;4995848;28;20448;-88
2021/03/08 03:59:03;;;;;;;19.30;13.20;;;;;;;-0.80;76.88;151167.00;4996055;28;20928;-88
2021/03/08 04:01:41;;;;;;;21.67;13.00;;;;;;;-0.79;77.42;151170.84;4980505;28;20962;-88
2021/03/08 04:04:22;;;;;;;17.40;12.97;;;;;;;-0.82;77.44;151161.91;4995641;28;20446;-88
2021/03/08 04:06:58;;;;;;;16.20;11.90;;;;;;;-0.89;76.80;151143.91;4995853;28;20835;-88
2021/03/08 04:09:34;;;;;;;17.60;12.07;;;;;;;-0.85;78.38;151154.19;4995693;28;20458;-88
2021/03/08 04:12:11;;;;;;;15.53;12.90;;;;;;;-0.93;76.70;151133.69;4995971;28;20811;-88
2021/03/08 04:14:48;;;;;;;16.23;11.97;;;;;;;-0.99;78.14;151118.28;4995387;28;20451;-88
2021/03/08 04:17:25;;;;;;;16.10;13.67;;;;;;;-1.01;78.36;151114.47;4980488;28;20464;-88
2021/03/08 04:20:01;;;;;;;16.90;12.13;;;;;;;-0.97;79.10;151123.41;4996071;28;20769;-88
2021/03/08 04:22:38;;;;;;;19.67;13.60;;;;;;;-0.94;78.50;151131.09;4980562;28;20443;-88
2021/03/08 04:25:14;;;;;;;18.20;13.07;;;;;;;-0.91;78.03;151138.78;4995721;28;20431;-87
2021/03/08 04:27:51;;;;;;;18.23;13.37;;;;;;;-0.95;77.96;151128.50;4978284;28;20464;-88
2021/03/08 04:30:27;;;;;;;18.70;13.10;;;;;;;-1.03;77.92;151109.28;4978765;28;20409;-88
2021/03/08 04:33:02;;;;;;;16.27;12.20;;;;;;;-1.00;79.07;151115.69;4995693;28;20458;-88
2021/03/08 04:35:38;;;;;;;21.23;13.53;;;;;;;-1.01;78.96;151114.47;4979714;28;20897;-88
2021/03/08 04:38:15;;;;;;;16.90;12.80;;;;;;;-1.10;77.95;151090.06;4995558;28;20477;-88
2021/03/08 04:40:51;;;;;;;17.97;12.70;;;;;;;-1.16;79.23;151074.66;4990498;28;20926;-89
2021/03/08 04:43:27;;;;;;;14.80;12.20;;;;;;;-1.19;78.86;151068.28;4973160;28;20462;-89
2021/03/08 04:46:02;;;;;;;14.97;12.37;;;;;;;-1.26;78.21;151050.34;4994724;28;20545;-89
2021/03/08 04:48:38;;;;;;;18.40;12.50;;;;;;;-1.26;79.47;151051.63;4995773;28;20793;-89
2021/03/08 04:51:13;;;;;;;16.13;11.83;;;;;;;-1.35;79.45;151028.53;4986991;28;20441;-89
2021/03/08 04:53:50;;;;;;;18.90;13.03;;;;;;;-1.36;79.34;151026.00;4995033;28;20452;-89
2021/03/08 04:56:27;;;;;;;16.30;12.27;;;;;;;-1.34;79.93;151031.13;4996181;28;20843;-89
2021/03/08 04:59:03;;;;;;;16.30;12.23;;;;;;;-1.34;80.54;151031.13;4980234;28;20528;-88
2021/03/08 05:01:39;;;;;;;17.40;13.50;;;;;;;-1.38;80.57;151019.59;4994743;28;20458;-90
2021/03/08 05:04:14;;;;;;;16.30;12.63;;;;;;;-1.35;81.43;151028.53;4994245;28;20538;-89
2021/03/08 05:06:50;;;;;;;19.33;13.20;;;;;;;-1.36;80.68;151024.72;4994781;28;20453;-89
2021/03/08 05:09:27;;;;;;;16.70;11.47;;;;;;;-1.46;81.95;151000.38;4994574;28;20471;-91
2021/03/08 05:12:05;;;;;;;20.40;13.43;;;;;;;-1.43;82.18;151008.03;4973148;28;20507;-91
2021/03/08 05:14:41;;;;;;;20.73;13.47;;;;;;;-1.40;82.48;151015.72;4988330;28;20841;-91
2021/03/08 05:17:17;;;;;;;16.70;11.73;;;;;;;-1.46;82.00;150999.09;4992939;28;20456;-91
2021/03/08 05:19:53;;;;;;;19.93;13.83;;;;;;;-1.49;82.19;150992.69;4975897;28;20432;-90
2021/03/08 05:22:28;;;;;;;20.07;13.70;;;;;;;-1.47;82.65;150997.81;4978776;28;20483;-91
2021/03/08 05:25:06;;;;;;;17.43;12.57;;;;;;;-1.50;82.17;150990.09;4973129;28;20445;-91
2021/03/08 05:27:43;;;;;;;19.10;12.97;;;;;;;-1.51;82.44;150986.28;4994711;28;20442;-91
2021/03/08 05:30:33;;;;;;;18.07;13.43;;;;;;;-1.55;81.63;150977.28;4986426;28;20443;-91
2021/03/08 05:33:12;;;;;;;20.83;14.80;;;;;;;-1.55;83.18;150977.28;4994924;28;20534;-91
2021/03/08 05:35:51;;;;;;;19.57;13.87;;;;;;;-1.60;82.20;150964.50;4994795;28;20428;-91
2021/03/08 05:38:29;;;;;;;20.17;14.03;;;;;;;-1.60;81.59;150964.50;4979272;28;20843;-91
2021/03/08 05:41:11;;;;;;;18.80;13.97;;;;;;;-1.59;82.04;150965.78;4979464;28;20423;-90
2021/03/08 05:43:48;;;;;;;18.63;14.43;;;;;;;-1.59;83.25;150967.03;4979470;28;20940;-91
2021/03/08 05:46:27;;;;;;;19.10;13.87;;;;;;;-1.61;81.66;150961.91;4993980;28;20462;-91
2021/03/08 05:49:22;;;;;;;16.47;12.70;;;;;;;-1.70;81.15;150937.59;4994877;28;20459;-90
2021/03/08 05:52:43;;;;;;;17.77;13.17;;;;;;;-1.69;81.56;150941.41;4980382;28;20451;-90
2021/03/08 05:55:58;;;;;;;17.67;12.07;;;;;;;-1.65;82.08;150951.69;4975555;28;20447;-91
2021/03/08 05:58:45;;;;;;;19.40;13.73;;;;;;;-1.68;81.50;150943.97;4994858;28;20438;-91
2021/03/08 06:01:45;;;;;;;20.20;12.73;;;;;;;-1.64;82.31;150954.22;5004148;28;20855;-91
2021/03/08 06:04:27;;;;;;;21.63;13.90;;;;;;;-1.61;83.72;150961.91;4979080;28;20456;-91
2021/03/08 06:07:32;;;;;;;19.43;13.83;;;;;;;-1.55;83.49;150976.00;4997642;28;20458;-89
2021/03/08 06:10:10;;;;;;;18.10;13.47;;;;;;;-1.53;82.96;150982.41;4983981;28;20462;-89
2021/03/08 06:12:48;;;;;;;19.97;12.50;;;;;;;-1.59;82.48;150967.03;4974944;28;20447;-89
2021/03/08 06:15:26;;;;;;;20.57;13.90;;;;;;;-1.60;82.11;150964.50;4989879;28;20424;-90
2021/03/08 06:18:02;;;;;;;18.70;13.00;;;;;;;-1.58;82.34;150968.31;4974731;28;20439;-90
2021/03/08 06:20:39;;;;;;;21.33;14.50;;;;;;;-1.55;82.80;150977.28;4990404;28;20477;-90
2021/03/08 06:23:15;;;;;;;23.37;13.23;;;;;;;-1.51;82.88;150987.53;4993296;28;20459;-90
2021/03/08 06:25:52;;;;;;;19.20;13.70;;;;;;;-1.45;82.62;151002.91;4994922;28;20527;-91
2021/03/08 06:28:28;;;;;;;17.10;12.50;;;;;;;-1.32;83.05;151036.22;4978401;28;20505;-90
2021/03/08 06:31:05;;;;;;;19.20;13.70;;;;;;;-1.18;82.51;151069.56;4993399;28;20537;-91
2021/03/08 06:33:41;;;;;;;19.60;14.03;;;;;;;-1.03;82.05;151108.06;4993721;28;20441;-92
2021/03/08 06:36:18;;;;;;;18.93;12.93;;;;;;;-0.80;81.27;151168.31;4976605;28;20446;-90
2021/03/08 06:38:53;;;;;;;17.13;12.03;;;;;;;-0.61;80.81;151215.75;4987983;28;20453;-91
2021/03/08 06:41:29;;;;;;;19.50;13.83;;;;;;;-0.39;80.23;151272.16;4994589;28;20452;-91
2021/03/08 06:44:05;;;;;;;20.03;14.83;;;;;;;-0.04;79.91;151361.97;4985862;28;20529;-91
2021/03/08 06:46:41;;;;;;;19.13;13.97;;;;;;;0.30;77.73;151446.66;4984137;28;20451;-90
2021/03/08 06:49:17;;;;;;;17.60;13.43;;;;;;;0.58;76.32;151518.59;4991260;28;20469;-89
2021/03/08 06:52:05;;;;;;;18.90;14.10;;;;;;;0.58;77.08;151518.59;4984788;28;20456;-90
2021/03/08 06:54:42;;;;;;;16.80;13.13;;;;;;;0.65;77.16;151536.53;4993433;28;21055;-76
2021/03/08 06:57:25;;;;;;;24.07;16.83;;;;;;;0.77;76.87;151566.09;4987835;28;20445;-89
2021/03/08 07:00:01;;;;;;;18.10;14.47;;;;;;;0.97;76.67;151618.72;4986600;28;20442;-89
2021/03/08 07:02:39;;;;;;;17.73;14.50;;;;;;;1.09;75.74;151648.25;4992094;28;20453;-88
2021/03/08 07:05:26;;;;;;;18.43;14.43;;;;;;;1.32;74.87;151706.06;4982945;28;20469;-88
2021/03/08 07:08:02;;;;;;;19.13;13.73;;;;;;;1.54;72.13;151762.56;4990856;28;20481;-88
2021/03/08 07:10:39;;;;;;;21.13;14.93;;;;;;;1.79;71.11;151826.84;4992555;28;20448;-90
2021/03/08 07:13:14;;;;;;;21.70;15.03;;;;;;;2.00;71.04;151879.56;4992857;28;20449;-89
2021/03/08 07:15:54;;;;;;;20.63;14.53;;;;;;;2.15;70.06;151918.09;4992697;28;21127;-90
2021/03/08 07:18:30;;;;;;;21.57;14.70;;;;;;;2.40;69.40;151983.72;4977442;28;20447;-89
2021/03/08 07:21:19;;;;;;;19.23;14.80;;;;;;;2.49;69.08;152005.53;4972262;28;20503;-90
2021/03/08 07:23:54;;;;;;;18.37;14.63;;;;;;;2.70;68.22;152058.31;5006922;28;20450;-89
2021/03/08 07:26:30;;;;;;;21.20;14.20;;;;;;;2.72;67.77;152063.44;4993250;28;20440;-89
2021/03/08 07:29:12;;;;;;;18.07;13.30;;;;;;;2.99;67.13;152132.91;4993446;28;20492;-92
2021/03/08 07:31:49;;;;;;;18.03;14.33;;;;;;;3.14;66.41;152171.50;4974159;28;20453;-91
2021/03/08 07:34:26;;;;;;;18.93;14.63;;;;;;;3.56;66.17;152278.31;4990337;28;20532;-91
2021/03/08 07:37:02;;;;;;;18.17;13.50;;;;;;;3.78;64.55;152333.69;4992754;28;20441;-91
2021/03/08 07:39:38;;;;;;;23.40;16.03;;;;;;;3.76;64.71;152328.53;4993012;28;20421;-92
2021/03/08 07:42:13;;;;;;;18.60;14.53;;;;;;;3.09;66.39;152158.66;4991512;28;20453;-77
2021/03/08 07:44:49;;;;;;;16.90;14.47;;;;;;;3.21;64.37;152189.50;4990888;28;20437;-77
2021/03/08 07:47:25;;;;;;;19.27;15.03;;;;;;;3.31;65.67;152215.22;4991482;28;20482;-77
2021/03/08 07:50:01;;;;;;;22.00;16.40;;;;;;;2.74;68.00;152068.56;4976063;28;20473;-77
2021/03/08 07:52:37;;;;;;;19.17;14.73;;;;;;;3.02;67.00;152140.59;4988335;28;20449;-77
2021/03/08 07:55:13;;;;;;;21.17;17.23;;;;;;;3.02;67.33;152140.59;4983699;28;20528;-77
2021/03/08 07:57:49;;;;;;;27.90;19.00;;;;;;;3.12;67.27;152165.06;4991387;28;20913;-76
2021/03/08 08:00:25;;;;;;;26.20;18.93;;;;;;;3.39;66.65;152234.59;4987673;28;20453;-77
2021/03/08 08:03:01;;;;;;;28.43;19.43;;;;;;;3.69;66.43;152313.09;4976140;28;20459;-77
2021/03/08 08:05:37;;;;;;;20.93;16.80;;;;;;;3.46;66.42;152252.59;4982330;28;20466;-77
2021/03/08 08:08:14;;;;;;;26.47;17.43;;;;;;;3.39;65.76;152234.59;4972726;28;20964;-77
2021/03/08 08:10:52;;;;;;;31.07;19.80;;;;;;;3.28;66.22;152207.56;4988290;28;20978;-77
2021/03/08 08:13:31;;;;;;;22.77;16.17;;;;;;;2.75;67.08;152071.16;4992046;28;20438;-76
2021/03/08 08:16:08;;;;;;;22.90;18.10;;;;;;;3.01;67.18;152139.34;4997935;28;20429;-77
2021/03/08 08:18:45;;;;;;;21.87;17.00;;;;;;;3.22;66.43;152192.09;4993458;28;20441;-77
2021/03/08 08:21:22;;;;;;;21.00;16.63;;;;;;;3.20;66.52;152185.66;4993949;28;20505;-76
2021/03/08 08:24:02;;;;;;;22.53;15.50;;;;;;;3.38;66.29;152233.28;4994181;28;20473;-76
2021/03/08 08:26:37;;;;;;;22.77;15.70;;;;;;;3.38;65.57;152232.00;4994289;28;20453;-77
2021/03/08 08:29:12;;;;;;;25.60;17.03;;;;;;;3.25;66.23;152199.81;4976293;28;20479;-77
2021/03/08 08:31:58;;;;;;;28.70;18.37;;;;;;;3.06;66.17;152150.91;4992538;28;20458;-77
2021/03/08 08:34:37;;;;;;;25.27;16.37;;;;;;;3.17;65.29;152179.22;4978690;28;20474;-77
2021/03/08 08:37:15;;;;;;;21.00;15.97;;;;;;;2.75;66.12;152072.47;4979146;28;20449;-77
2021/03/08 08:40:14;;;;;;;25.03;17.10;;;;;;;2.87;66.91;152102.00;4965242;28;20445;-77
2021/03/08 08:43:19;;;;;;;23.43;17.57;;;;;;;2.99;66.46;152132.91;4980959;28;20471;-77
2021/03/08 08:45:56;;;;;;;22.33;16.50;;;;;;;2.72;66.03;152064.75;5002119;28;20449;-77
2021/03/08 08:48:31;;;;;;;24.50;16.57;;;;;;;2.57;67.06;152024.88;4978876;28;20450;-77
2021/03/08 08:51:06;;;;;;;21.10;16.10;;;;;;;2.41;66.14;151986.25;4988620;28;20611;-77
2021/03/08 08:53:44;;;;;;;20.77;16.00;;;;;;;2.57;67.58;152026.13;4985417;28;20444;-77
2021/03/08 08:56:47;;;;;;;18.43;15.40;;;;;;;3.00;66.00;152135.47;4985693;28;20462;-77
2021/03/08 08:59:23;;;;;;;19.83;14.67;;;;;;;2.68;65.76;152054.41;4984868;28;20453;-77
2021/03/08 09:02:31;;;;;;;16.97;14.33;;;;;;;2.74;66.29;152068.56;4989751;28;20456;-77
2021/03/08 09:05:37;;;;;;;21.80;15.50;;;;;;;2.70;66.81;152058.31;4980975;28;20449;-77
2021/03/08 09:08:31;;;;;;;23.50;15.30;;;;;;;2.65;66.77;152046.69;4984560;28;20468;-78
2021/03/08 09:11:42;;;;;;;19.80;15.67;;;;;;;2.68;66.88;152054.41;5006430;28;20589;-78
2021/03/08 09:14:36;;;;;;;19.20;14.40;;;;;;;2.65;66.99;152045.44;5018519;28;20536;-77
2021/03/08 09:17:15;;;;;;;18.13;14.73;;;;;;;2.76;67.13;152073.72;4993042;28;20456;-78
2021/03/08 09:19:53;;;;;;;18.93;14.30;;;;;;;2.96;66.87;152125.19;4973243;28;20456;-78
2021/03/08 09:22:44;;;;;;;16.33;13.83;;;;;;;3.06;66.29;152150.91;4971919;28;21135;-78
2021/03/08 09:25:24;;;;;;;22.03;15.93;;;;;;;2.91;66.23;152113.56;4989522;28;20479;-78
2021/03/08 09:28:08;;;;;;;18.07;15.20;;;;;;;2.94;66.91;152120.00;4975675;28;20460;-78
2021/03/08 09:30:45;;;;;;;22.73;16.00;;;;;;;3.19;65.83;152183.06;4991884;28;20468;-78
2021/03/08 09:33:21;;;;;;;17.60;14.70;;;;;;;3.01;65.42;152139.34;4984884;28;20445;-78
2021/03/08 09:35:58;;;;;;;18.20;13.93;;;;;;;3.18;65.73;152181.78;4990443;28;20552;-78
2021/03/08 09:38:33;;;;;;;19.17;14.20;;;;;;;2.85;65.99;152098.19;4990604;28;20445;-78
2021/03/08 09:41:09;;;;;;;18.23;14.43;;;;;;;3.16;65.93;152175.34;4991121;28;20444;-78
2021/03/08 09:43:46;;;;;;;17.37;13.93;;;;;;;3.42;65.66;152242.25;4991399;28;20516;-78
2021/03/08 09:46:22;;;;;;;18.23;14.00;;;;;;;3.38;64.77;152232.00;5008485;28;20559;-77
2021/03/08 09:48:57;;;;;;;16.50;13.70;;;;;;;3.48;63.86;152259.00;4976131;28;20555;-77
2021/03/08 09:51:32;;;;;;;17.43;13.50;;;;;;;3.59;64.38;152286.03;4984605;28;20505;-77
2021/03/08 09:54:07;;;;;;;18.40;14.30;;;;;;;3.19;63.95;152184.38;4988653;28;20473;-75
2021/03/08 09:56:42;;;;;;;18.30;14.83;;;;;;;3.19;64.79;152184.38;4987757;28;20453;-78
2021/03/08 09:59:18;;;;;;;18.63;14.97;;;;;;;3.31;64.99;152215.22;4989032;28;20824;-77
2021/03/08 10:01:53;;;;;;;17.10;13.60;;;;;;;3.46;64.04;152253.88;4970129;28;20453;-78
2021/03/08 10:04:29;;;;;;;16.77;13.33;;;;;;;3.63;63.52;152297.63;4983214;28;20452;-78
2021/03/08 10:07:05;;;;;;;19.70;13.90;;;;;;;3.93;62.98;152372.28;4974562;28;20968;-78
2021/03/08 10:09:41;;;;;;;17.80;14.80;;;;;;;3.86;63.04;152354.28;4985994;28;20466;-79
2021/03/08 10:12:26;;;;;;;17.27;13.93;;;;;;;4.03;62.99;152398.03;4987869;28;20940;-79
2021/03/08 10:15:04;;;;;;;15.23;12.50;;;;;;;3.91;62.37;152367.16;4994548;28;20441;-78
2021/03/08 10:17:56;;;;;;;18.50;14.20;;;;;;;3.52;62.77;152269.28;4990204;28;20528;-79
2021/03/08 10:20:32;;;;;;;22.43;14.50;;;;;;;3.42;63.15;152242.25;4974363;28;20470;-79
2021/03/08 10:23:14;;;;;;;18.40;13.30;;;;;;;3.21;63.74;152189.50;4989378;28;20508;-78
2021/03/08 10:25:50;;;;;;;17.40;13.63;;;;;;;3.46;63.47;152253.88;4989977;28;20456;-78
2021/03/08 10:28:35;;;;;;;15.63;13.93;;;;;;;3.49;62.93;152261.59;5005076;28;20480;-78
2021/03/08 10:31:18;;;;;;;18.30;14.03;;;;;;;3.41;63.35;152239.72;4990594;28;20489;-78
2021/03/08 10:33:56;;;;;;;17.23;13.33;;;;;;;3.41;63.51;152241.00;4987354;28;20480;-77
2021/03/08 10:36:38;;;;;;;15.70;12.83;;;;;;;3.58;62.51;152284.75;4983939;28;20469;-77
2021/03/08 10:39:14;;;;;;;15.33;12.00;;;;;;;3.97;61.26;152382.63;4987969;28;20532;-77
2021/03/08 10:41:51;;;;;;;14.20;10.90;;;;;;;4.14;58.85;152427.69;4987127;28;20816;-77
2021/03/08 10:44:27;;;;;;;18.53;12.83;;;;;;;4.04;60.47;152401.94;4989346;28;20429;-77
2021/03/08 10:47:17;;;;;;;15.50;11.57;;;;;;;3.93;60.82;152372.28;4988249;28;20457;-77
2021/03/08 10:49:53;;;;;;;14.60;11.80;;;;;;;3.80;60.01;152338.81;4971416;28;20472;-79
2021/03/08 10:52:28;;;;;;;15.67;12.50;;;;;;;3.90;60.64;152364.56;4988901;28;20469;-79
2021/03/08 10:55:07;;;;;;;16.00;11.93;;;;;;;3.72;60.75;152318.22;4986535;28;20457;-79
2021/03/08 10:57:50;;;;;;;15.70;12.80;;;;;;;3.78;61.31;152333.69;4999718;28;20942;-79
2021/03/08 11:00:26;;;;;;;17.80;13.00;;;;;;;3.65;61.05;152302.75;4971817;28;20451;-79
2021/03/08 11:03:06;;;;;;;17.63;13.23;;;;;;;3.68;61.51;152310.50;4989041;28;20542;-79
2021/03/08 11:05:41;;;;;;;18.43;13.07;;;;;;;3.78;60.86;152333.69;4990388;28;20437;-78
2021/03/08 11:08:16;;;;;;;15.17;11.30;;;;;;;3.86;61.33;152354.28;4990669;28;20458;-78
2021/03/08 11:10:51;;;;;;;18.20;10.70;;;;;;;3.94;59.88;152376.19;4990791;28;20468;-78
2021/03/08 11:13:33;;;;;;;13.60;10.83;;;;;;;4.10;59.25;152416.09;4989472;28;20540;-78
2021/03/08 11:16:10;;;;;;;13.70;10.37;;;;;;;4.19;57.99;152440.56;4988768;28;20460;-78
2021/03/08 11:18:46;;;;;;;12.37;10.17;;;;;;;4.34;56.77;152476.63;5004834;28;20486;-78
2021/03/08 11:21:28;;;;;;;11.87;10.10;;;;;;;3.95;56.39;152377.44;4987240;28;20484;-79
2021/03/08 11:24:20;;;;;;;13.27;10.30;;;;;;;3.88;56.81;152359.44;5006131;28;20442;-78
2021/03/08 11:27:20;;;;;;;12.97;9.97;;;;;;;3.92;54.91;152371.00;4984653;28;20454;-78
2021/03/08 11:29:58;;;;;;;11.90;10.40;;;;;;;4.15;55.75;152430.28;4966405;28;20477;-78
2021/03/08 11:32:34;;;;;;;13.67;9.97;;;;;;;4.21;54.92;152445.69;4984500;28;20454;-78
2021/03/08 11:35:16;;;;;;;14.13;10.10;;;;;;;4.22;55.41;152447.00;4976957;28;20449;-78
2021/03/08 11:37:53;;;;;;;13.73;9.90;;;;;;;4.40;56.10;152492.06;4990637;28;20450;-77
2021/03/08 11:40:29;;;;;;;14.27;11.97;;;;;;;4.30;56.09;152467.59;4989361;28;20471;-78
2021/03/08 11:43:04;;;;;;;16.50;11.67;;;;;;;4.33;55.63;152475.34;4993404;28;20442;-78
2021/03/08 11:45:40;;;;;;;14.73;11.40;;;;;;;4.43;56.06;152501.09;4992141;28;20818;-78
2021/03/08 11:48:15;;;;;;;15.50;12.20;;;;;;;4.66;56.08;152560.34;4990911;28;20545;-78
2021/03/08 11:50:52;;;;;;;16.83;12.37;;;;;;;4.62;56.80;152550.06;4990333;28;20508;-78
2021/03/08 11:53:27;;;;;;;16.63;12.10;;;;;;;4.71;56.97;152571.97;4980299;28;20848;-79
2021/03/08 11:56:03;;;;;;;17.33;13.50;;;;;;;4.57;57.00;152537.19;4994375;28;20453;-79
2021/03/08 11:58:38;;;;;;;15.20;12.10;;;;;;;4.80;56.54;152595.13;4993252;28;20453;-78
2021/03/08 12:01:14;;;;;;;17.53;13.03;;;;;;;4.75;56.18;152583.56;4997794;28;20460;-79
2021/03/08 12:03:49;;;;;;;15.97;11.97;;;;;;;4.48;55.57;152513.97;4999144;28;20469;-78
2021/03/08 12:06:25;;;;;;;14.80;11.73;;;;;;;4.47;56.53;152511.41;4989437;28;20492;-79
2021/03/08 12:09:01;;;;;;;17.43;11.77;;;;;;;4.39;55.09;152490.81;4998292;28;20506;-78